sensor_id;sensor_type;location;lat;lon;timestamp;temperature;humidity
10654;DHT22;5375;51.250;6.776;2023-06-22T00:00:29;26.50;50.90
10654;DHT22;5375;51.250;6.776;2023-06-22T00:02:55;26.50;51.00
10654;DHT22;5375;51.250;6.776;2023-06-22T00:05:21;26.50;51.00
10654;DHT22;5375;51.250;6.776;2023-06-22T00:07:46;26.50;51.00
10654;DHT22;5375;51.250;6.776;2023-06-22T00:10:12;26.50;51.00
10654;DHT22;5375;51.250;6.776;2023-06-22T00:12:37;26.50;51.10
10654;DHT22;5375;51.250;6.776;2023-06-22T00:15:03;26.50;51.10
10654;DHT22;5375;51.250;6.776;2023-06-22T00:17:29;26.50;51.10
10654;DHT22;5375;51.250;6.776;2023-06-22T00:19:55;26.50;51.10
10654;DHT22;5375;51.250;6.776;2023-06-22T00:22:21;26.50;51.20
10654;DHT22;5375;51.250;6.776;2023-06-22T00:24:56;26.40;50.50
10654;DHT22;5375;51.250;6.776;2023-06-22T00:27:21;26.50;51.30
10654;DHT22;5375;51.250;6.776;2023-06-22T00:29:47;26.50;51.30
10654;DHT22;5375;51.250;6.776;2023-06-22T00:32:12;26.50;51.30
10654;DHT22;5375;51.250;6.776;2023-06-22T00:34:38;26.50;51.30
10654;DHT22;5375;51.250;6.776;2023-06-22T00:37:04;26.50;51.30
10654;DHT22;5375;51.250;6.776;2023-06-22T00:39:29;26.50;51.30
10654;DHT22;5375;51.250;6.776;2023-06-22T00:41:55;26.40;51.30
10654;DHT22;5375;51.250;6.776;2023-06-22T00:44:21;26.50;51.40
10654;DHT22;5375;51.250;6.776;2023-06-22T00:46:46;26.50;51.40
10654;DHT22;5375;51.250;6.776;2023-06-22T00:49:12;26.50;51.40
10654;DHT22;5375;51.250;6.776;2023-06-22T00:51:38;26.50;51.40
10654;DHT22;5375;51.250;6.776;2023-06-22T00:54:05;26.50;51.40
10654;DHT22;5375;51.250;6.776;2023-06-22T00:56:31;26.50;51.50
10654;DHT22;5375;51.250;6.776;2023-06-22T00:58:58;26.50;51.50
10654;DHT22;5375;51.250;6.776;2023-06-22T01:01:25;26.50;51.50
10654;DHT22;5375;51.250;6.776;2023-06-22T01:03:51;26.50;51.50
10654;DHT22;5375;51.250;6.776;2023-06-22T01:06:22;26.50;51.60
10654;DHT22;5375;51.250;6.776;2023-06-22T01:09:00;26.40;51.60
10654;DHT22;5375;51.250;6.776;2023-06-22T01:11:41;26.50;51.60
10654;DHT22;5375;51.250;6.776;2023-06-22T01:16:48;26.40;51.60
10654;DHT22;5375;51.250;6.776;2023-06-22T01:22:02;26.40;51.60
10654;DHT22;5375;51.250;6.776;2023-06-22T01:24:33;26.40;51.70
10654;DHT22;5375;51.250;6.776;2023-06-22T01:29:53;26.40;51.70
10654;DHT22;5375;51.250;6.776;2023-06-22T01:32:21;26.40;51.70
10654;DHT22;5375;51.250;6.776;2023-06-22T01:34:47;26.40;51.80
10654;DHT22;5375;51.250;6.776;2023-06-22T01:37:14;26.40;51.90
10654;DHT22;5375;51.250;6.776;2023-06-22T01:39:40;26.40;51.90
10654;DHT22;5375;51.250;6.776;2023-06-22T01:42:06;26.40;51.90
10654;DHT22;5375;51.250;6.776;2023-06-22T01:44:33;26.40;51.90
10654;DHT22;5375;51.250;6.776;2023-06-22T01:46:59;26.40;51.90
10654;DHT22;5375;51.250;6.776;2023-06-22T01:49:25;26.40;51.90
10654;DHT22;5375;51.250;6.776;2023-06-22T01:51:51;26.40;52.00
10654;DHT22;5375;51.250;6.776;2023-06-22T01:54:16;26.40;52.00
10654;DHT22;5375;51.250;6.776;2023-06-22T01:56:42;26.40;52.00
10654;DHT22;5375;51.250;6.776;2023-06-22T01:59:23;26.40;52.00
10654;DHT22;5375;51.250;6.776;2023-06-22T02:01:56;26.40;52.00
10654;DHT22;5375;51.250;6.776;2023-06-22T02:04:32;26.40;52.10
10654;DHT22;5375;51.250;6.776;2023-06-22T02:06:59;26.40;52.10
10654;DHT22;5375;51.250;6.776;2023-06-22T02:09:29;26.40;52.10
10654;DHT22;5375;51.250;6.776;2023-06-22T02:11:56;26.40;52.10
10654;DHT22;5375;51.250;6.776;2023-06-22T02:14:24;26.40;52.10
10654;DHT22;5375;51.250;6.776;2023-06-22T02:16:51;26.40;52.10
10654;DHT22;5375;51.250;6.776;2023-06-22T02:19:17;26.40;52.10
10654;DHT22;5375;51.250;6.776;2023-06-22T02:21:47;26.40;52.20
10654;DHT22;5375;51.250;6.776;2023-06-22T02:24:13;26.40;52.20
10654;DHT22;5375;51.250;6.776;2023-06-22T02:26:39;26.40;52.20
10654;DHT22;5375;51.250;6.776;2023-06-22T02:29:08;26.40;52.20
10654;DHT22;5375;51.250;6.776;2023-06-22T02:31:33;26.30;52.20
10654;DHT22;5375;51.250;6.776;2023-06-22T02:33:59;26.40;52.20
10654;DHT22;5375;51.250;6.776;2023-06-22T02:36:25;26.40;52.20
10654;DHT22;5375;51.250;6.776;2023-06-22T02:38:53;26.40;52.20
10654;DHT22;5375;51.250;6.776;2023-06-22T02:41:19;26.30;52.20
10654;DHT22;5375;51.250;6.776;2023-06-22T02:43:45;26.40;52.30
10654;DHT22;5375;51.250;6.776;2023-06-22T02:46:12;26.40;52.30
10654;DHT22;5375;51.250;6.776;2023-06-22T02:48:39;26.40;52.30
10654;DHT22;5375;51.250;6.776;2023-06-22T02:51:05;26.40;52.30
10654;DHT22;5375;51.250;6.776;2023-06-22T02:53:30;26.40;52.30
10654;DHT22;5375;51.250;6.776;2023-06-22T02:55:57;26.40;52.30
10654;DHT22;5375;51.250;6.776;2023-06-22T02:58:23;26.30;52.30
10654;DHT22;5375;51.250;6.776;2023-06-22T03:00:49;26.40;53.00
10654;DHT22;5375;51.250;6.776;2023-06-22T03:03:18;26.30;52.40
10654;DHT22;5375;51.250;6.776;2023-06-22T03:05:44;26.30;52.30
10654;DHT22;5375;51.250;6.776;2023-06-22T03:08:10;26.30;52.40
10654;DHT22;5375;51.250;6.776;2023-06-22T03:10:35;26.30;52.40
10654;DHT22;5375;51.250;6.776;2023-06-22T03:13:01;26.40;52.50
10654;DHT22;5375;51.250;6.776;2023-06-22T03:15:26;26.40;52.40
10654;DHT22;5375;51.250;6.776;2023-06-22T03:17:54;26.40;52.50
10654;DHT22;5375;51.250;6.776;2023-06-22T03:20:20;26.30;52.40
10654;DHT22;5375;51.250;6.776;2023-06-22T03:22:46;26.40;52.50
10654;DHT22;5375;51.250;6.776;2023-06-22T03:25:11;26.40;52.60
10654;DHT22;5375;51.250;6.776;2023-06-22T03:27:42;26.40;52.60
10654;DHT22;5375;51.250;6.776;2023-06-22T03:30:12;26.30;52.60
10654;DHT22;5375;51.250;6.776;2023-06-22T03:32:37;26.30;52.60
10654;DHT22;5375;51.250;6.776;2023-06-22T03:35:03;26.30;52.10
10654;DHT22;5375;51.250;6.776;2023-06-22T03:37:29;26.30;52.70
10654;DHT22;5375;51.250;6.776;2023-06-22T03:39:55;26.30;52.70
10654;DHT22;5375;51.250;6.776;2023-06-22T03:42:20;26.20;52.90
10654;DHT22;5375;51.250;6.776;2023-06-22T03:44:46;26.10;53.00
10654;DHT22;5375;51.250;6.776;2023-06-22T03:47:12;26.10;53.30
10654;DHT22;5375;51.250;6.776;2023-06-22T03:49:38;26.00;53.50
10654;DHT22;5375;51.250;6.776;2023-06-22T03:52:04;25.90;53.60
10654;DHT22;5375;51.250;6.776;2023-06-22T03:54:31;25.90;53.80
10654;DHT22;5375;51.250;6.776;2023-06-22T03:56:57;25.80;54.00
10654;DHT22;5375;51.250;6.776;2023-06-22T03:59:23;25.70;54.10
10654;DHT22;5375;51.250;6.776;2023-06-22T04:01:49;25.70;54.40
10654;DHT22;5375;51.250;6.776;2023-06-22T04:04:17;25.60;54.50
10654;DHT22;5375;51.250;6.776;2023-06-22T04:06:42;25.60;54.80
10654;DHT22;5375;51.250;6.776;2023-06-22T04:09:08;25.60;54.90
10654;DHT22;5375;51.250;6.776;2023-06-22T04:11:34;25.60;55.00
10654;DHT22;5375;51.250;6.776;2023-06-22T04:13:59;25.60;55.10
10654;DHT22;5375;51.250;6.776;2023-06-22T04:16:25;25.60;55.10
10654;DHT22;5375;51.250;6.776;2023-06-22T04:18:51;25.60;55.20
10654;DHT22;5375;51.250;6.776;2023-06-22T04:21:16;25.60;55.20
10654;DHT22;5375;51.250;6.776;2023-06-22T04:23:42;25.50;55.30
10654;DHT22;5375;51.250;6.776;2023-06-22T04:26:08;25.50;55.40
10654;DHT22;5375;51.250;6.776;2023-06-22T04:28:34;25.50;55.40
10654;DHT22;5375;51.250;6.776;2023-06-22T04:31:03;25.50;55.50
10654;DHT22;5375;51.250;6.776;2023-06-22T04:33:29;25.50;55.00
10654;DHT22;5375;51.250;6.776;2023-06-22T04:35:55;25.50;55.70
10654;DHT22;5375;51.250;6.776;2023-06-22T04:38:24;25.40;55.70
10654;DHT22;5375;51.250;6.776;2023-06-22T04:40:50;25.40;55.70
10654;DHT22;5375;51.250;6.776;2023-06-22T04:43:16;25.40;55.80
10654;DHT22;5375;51.250;6.776;2023-06-22T04:45:41;25.40;55.80
10654;DHT22;5375;51.250;6.776;2023-06-22T04:48:07;25.40;56.00
10654;DHT22;5375;51.250;6.776;2023-06-22T04:50:38;25.30;55.90
10654;DHT22;5375;51.250;6.776;2023-06-22T04:53:06;25.30;56.00
10654;DHT22;5375;51.250;6.776;2023-06-22T04:55:32;25.30;56.10
10654;DHT22;5375;51.250;6.776;2023-06-22T04:57:58;25.30;56.20
10654;DHT22;5375;51.250;6.776;2023-06-22T05:00:30;25.20;56.20
10654;DHT22;5375;51.250;6.776;2023-06-22T05:02:56;25.20;56.30
10654;DHT22;5375;51.250;6.776;2023-06-22T05:05:26;25.20;56.40
10654;DHT22;5375;51.250;6.776;2023-06-22T05:07:52;25.20;55.90
10654;DHT22;5375;51.250;6.776;2023-06-22T05:10:25;25.20;56.50
10654;DHT22;5375;51.250;6.776;2023-06-22T05:12:50;25.20;56.60
10654;DHT22;5375;51.250;6.776;2023-06-22T05:15:16;25.10;56.60
10654;DHT22;5375;51.250;6.776;2023-06-22T05:17:42;25.10;56.80
10654;DHT22;5375;51.250;6.776;2023-06-22T05:20:11;25.10;57.00
10654;DHT22;5375;51.250;6.776;2023-06-22T05:22:38;25.00;57.10
10654;DHT22;5375;51.250;6.776;2023-06-22T05:25:08;25.10;57.10
10654;DHT22;5375;51.250;6.776;2023-06-22T05:27:33;25.10;57.10
10654;DHT22;5375;51.250;6.776;2023-06-22T05:29:59;25.20;57.20
10654;DHT22;5375;51.250;6.776;2023-06-22T05:32:24;25.20;57.10
10654;DHT22;5375;51.250;6.776;2023-06-22T05:34:50;25.20;57.20
10654;DHT22;5375;51.250;6.776;2023-06-22T05:37:15;25.20;57.20
10654;DHT22;5375;51.250;6.776;2023-06-22T05:39:41;25.20;57.20
10654;DHT22;5375;51.250;6.776;2023-06-22T05:42:07;25.20;57.20
10654;DHT22;5375;51.250;6.776;2023-06-22T05:44:33;25.20;57.30
10654;DHT22;5375;51.250;6.776;2023-06-22T05:46:59;25.20;57.30
10654;DHT22;5375;51.250;6.776;2023-06-22T05:49:25;25.20;57.30
10654;DHT22;5375;51.250;6.776;2023-06-22T05:51:58;25.20;57.20
10654;DHT22;5375;51.250;6.776;2023-06-22T05:54:23;25.20;57.10
10654;DHT22;5375;51.250;6.776;2023-06-22T05:56:49;25.20;57.00
10654;DHT22;5375;51.250;6.776;2023-06-22T05:59:14;25.20;57.00
10654;DHT22;5375;51.250;6.776;2023-06-22T06:01:40;25.20;57.10
10654;DHT22;5375;51.250;6.776;2023-06-22T06:04:06;25.20;57.00
10654;DHT22;5375;51.250;6.776;2023-06-22T06:06:34;25.20;56.90
10654;DHT22;5375;51.250;6.776;2023-06-22T06:09:06;25.30;57.00
10654;DHT22;5375;51.250;6.776;2023-06-22T06:11:33;25.30;56.90
10654;DHT22;5375;51.250;6.776;2023-06-22T06:13:59;25.40;56.80
10654;DHT22;5375;51.250;6.776;2023-06-22T06:16:24;25.40;56.70
10654;DHT22;5375;51.250;6.776;2023-06-22T06:18:50;25.40;56.60
10654;DHT22;5375;51.250;6.776;2023-06-22T06:21:16;25.50;56.60
10654;DHT22;5375;51.250;6.776;2023-06-22T06:23:42;25.50;56.40
10654;DHT22;5375;51.250;6.776;2023-06-22T06:26:08;25.50;56.30
10654;DHT22;5375;51.250;6.776;2023-06-22T06:28:34;25.60;56.20
10654;DHT22;5375;51.250;6.776;2023-06-22T06:31:00;25.60;56.00
10654;DHT22;5375;51.250;6.776;2023-06-22T06:33:26;25.70;55.90
10654;DHT22;5375;51.250;6.776;2023-06-22T06:35:51;25.70;55.70
10654;DHT22;5375;51.250;6.776;2023-06-22T06:38:17;25.80;55.60
10654;DHT22;5375;51.250;6.776;2023-06-22T06:40:43;25.80;55.40
10654;DHT22;5375;51.250;6.776;2023-06-22T06:43:10;25.80;55.30
10654;DHT22;5375;51.250;6.776;2023-06-22T06:45:35;25.90;55.30
10654;DHT22;5375;51.250;6.776;2023-06-22T06:48:01;25.90;55.10
10654;DHT22;5375;51.250;6.776;2023-06-22T06:50:27;25.90;55.00
10654;DHT22;5375;51.250;6.776;2023-06-22T06:52:52;26.00;55.00
10654;DHT22;5375;51.250;6.776;2023-06-22T06:55:18;25.90;54.70
10654;DHT22;5375;51.250;6.776;2023-06-22T06:57:44;25.90;54.70
10654;DHT22;5375;51.250;6.776;2023-06-22T07:00:14;26.00;54.70
10654;DHT22;5375;51.250;6.776;2023-06-22T07:02:42;26.00;54.60
10654;DHT22;5375;51.250;6.776;2023-06-22T07:05:09;26.00;54.50
10654;DHT22;5375;51.250;6.776;2023-06-22T07:07:35;26.10;54.50
10654;DHT22;5375;51.250;6.776;2023-06-22T07:10:01;26.10;54.50
10654;DHT22;5375;51.250;6.776;2023-06-22T07:12:27;26.00;54.30
10654;DHT22;5375;51.250;6.776;2023-06-22T07:14:52;26.10;54.30
10654;DHT22;5375;51.250;6.776;2023-06-22T07:17:18;26.10;54.30
10654;DHT22;5375;51.250;6.776;2023-06-22T07:19:44;26.10;54.30
10654;DHT22;5375;51.250;6.776;2023-06-22T07:22:09;26.10;54.30
10654;DHT22;5375;51.250;6.776;2023-06-22T07:24:35;26.10;54.30
10654;DHT22;5375;51.250;6.776;2023-06-22T07:27:01;26.10;54.20
10654;DHT22;5375;51.250;6.776;2023-06-22T07:29:27;26.20;54.30
10654;DHT22;5375;51.250;6.776;2023-06-22T07:31:53;26.20;54.20
10654;DHT22;5375;51.250;6.776;2023-06-22T07:34:19;26.20;54.20
10654;DHT22;5375;51.250;6.776;2023-06-22T07:36:45;26.20;54.20
10654;DHT22;5375;51.250;6.776;2023-06-22T07:39:11;26.20;54.10
10654;DHT22;5375;51.250;6.776;2023-06-22T07:41:39;26.20;54.10
10654;DHT22;5375;51.250;6.776;2023-06-22T07:44:05;26.20;54.10
10654;DHT22;5375;51.250;6.776;2023-06-22T07:46:31;26.30;54.10
10654;DHT22;5375;51.250;6.776;2023-06-22T07:48:57;26.20;54.00
10654;DHT22;5375;51.250;6.776;2023-06-22T07:51:23;26.20;54.00
10654;DHT22;5375;51.250;6.776;2023-06-22T07:53:49;26.30;54.00
10654;DHT22;5375;51.250;6.776;2023-06-22T07:56:14;26.30;54.00
10654;DHT22;5375;51.250;6.776;2023-06-22T07:58:47;26.30;53.90
10654;DHT22;5375;51.250;6.776;2023-06-22T08:01:16;26.30;53.90
10654;DHT22;5375;51.250;6.776;2023-06-22T08:03:42;26.30;53.90
10654;DHT22;5375;51.250;6.776;2023-06-22T08:06:08;26.30;53.90
10654;DHT22;5375;51.250;6.776;2023-06-22T08:08:35;26.30;53.80
10654;DHT22;5375;51.250;6.776;2023-06-22T08:11:01;25.60;53.30
10654;DHT22;5375;51.250;6.776;2023-06-22T08:13:26;26.40;53.80
10654;DHT22;5375;51.250;6.776;2023-06-22T08:15:52;26.40;53.80
10654;DHT22;5375;51.250;6.776;2023-06-22T08:18:17;26.40;53.80
10654;DHT22;5375;51.250;6.776;2023-06-22T08:20:43;26.40;53.80
10654;DHT22;5375;51.250;6.776;2023-06-22T08:23:09;26.40;53.70
10654;DHT22;5375;51.250;6.776;2023-06-22T08:25:35;26.40;53.60
10654;DHT22;5375;51.250;6.776;2023-06-22T08:28:04;26.40;53.00
10654;DHT22;5375;51.250;6.776;2023-06-22T08:30:30;26.40;53.60
10654;DHT22;5375;51.250;6.776;2023-06-22T08:32:56;26.50;53.60
10654;DHT22;5375;51.250;6.776;2023-06-22T08:35:22;26.40;54.20
10654;DHT22;5375;51.250;6.776;2023-06-22T08:37:48;26.40;53.50
10654;DHT22;5375;51.250;6.776;2023-06-22T08:40:18;26.40;53.60
10654;DHT22;5375;51.250;6.776;2023-06-22T08:42:45;26.40;54.20
10654;DHT22;5375;51.250;6.776;2023-06-22T08:45:11;26.40;53.60
10654;DHT22;5375;51.250;6.776;2023-06-22T08:47:37;26.50;53.60
10654;DHT22;5375;51.250;6.776;2023-06-22T08:50:03;26.50;53.60
10654;DHT22;5375;51.250;6.776;2023-06-22T08:52:29;26.50;53.60
10654;DHT22;5375;51.250;6.776;2023-06-22T08:54:54;26.40;53.60
10654;DHT22;5375;51.250;6.776;2023-06-22T08:57:21;26.50;53.80
10654;DHT22;5375;51.250;6.776;2023-06-22T08:59:46;26.50;53.80
10654;DHT22;5375;51.250;6.776;2023-06-22T09:02:12;26.50;53.80
10654;DHT22;5375;51.250;6.776;2023-06-22T09:04:38;26.50;53.80
10654;DHT22;5375;51.250;6.776;2023-06-22T09:07:03;26.50;53.90
10654;DHT22;5375;51.250;6.776;2023-06-22T09:09:29;26.50;53.80
10654;DHT22;5375;51.250;6.776;2023-06-22T09:14:21;26.50;53.20
10654;DHT22;5375;51.250;6.776;2023-06-22T09:16:46;26.50;54.40
10654;DHT22;5375;51.250;6.776;2023-06-22T09:19:12;26.50;53.70
10654;DHT22;5375;51.250;6.776;2023-06-22T09:21:38;26.60;53.80
10654;DHT22;5375;51.250;6.776;2023-06-22T09:24:04;26.50;53.70
10654;DHT22;5375;51.250;6.776;2023-06-22T09:26:29;26.60;53.70
10654;DHT22;5375;51.250;6.776;2023-06-22T09:28:55;26.60;53.70
10654;DHT22;5375;51.250;6.776;2023-06-22T09:31:21;26.60;53.70
10654;DHT22;5375;51.250;6.776;2023-06-22T09:33:55;26.60;53.70
10654;DHT22;5375;51.250;6.776;2023-06-22T09:36:21;26.60;53.70
10654;DHT22;5375;51.250;6.776;2023-06-22T09:38:47;26.60;53.70
10654;DHT22;5375;51.250;6.776;2023-06-22T09:41:13;26.60;53.70
10654;DHT22;5375;51.250;6.776;2023-06-22T09:43:39;26.70;53.80
10654;DHT22;5375;51.250;6.776;2023-06-22T09:46:04;26.60;53.80
10654;DHT22;5375;51.250;6.776;2023-06-22T09:48:31;26.60;53.80
10654;DHT22;5375;51.250;6.776;2023-06-22T09:50:56;26.60;53.80
10654;DHT22;5375;51.250;6.776;2023-06-22T09:53:22;26.60;53.80
10654;DHT22;5375;51.250;6.776;2023-06-22T09:55:47;26.60;53.80
10654;DHT22;5375;51.250;6.776;2023-06-22T09:58:13;26.70;53.90
10654;DHT22;5375;51.250;6.776;2023-06-22T10:00:39;26.70;53.80
10654;DHT22;5375;51.250;6.776;2023-06-22T10:03:06;26.70;53.80
10654;DHT22;5375;51.250;6.776;2023-06-22T10:05:32;26.70;53.80
10654;DHT22;5375;51.250;6.776;2023-06-22T10:07:58;26.70;53.80
10654;DHT22;5375;51.250;6.776;2023-06-22T10:10:23;26.70;53.80
10654;DHT22;5375;51.250;6.776;2023-06-22T10:12:56;26.70;53.70
10654;DHT22;5375;51.250;6.776;2023-06-22T10:15:22;28.10;54.60
10654;DHT22;5375;51.250;6.776;2023-06-22T10:17:48;26.70;53.70
10654;DHT22;5375;51.250;6.776;2023-06-22T10:20:14;26.70;53.80
10654;DHT22;5375;51.250;6.776;2023-06-22T10:22:44;26.70;53.70
10654;DHT22;5375;51.250;6.776;2023-06-22T10:25:10;26.70;53.80
10654;DHT22;5375;51.250;6.776;2023-06-22T10:27:36;26.80;53.80
10654;DHT22;5375;51.250;6.776;2023-06-22T10:30:06;26.80;53.80
10654;DHT22;5375;51.250;6.776;2023-06-22T10:32:31;26.80;53.80
10654;DHT22;5375;51.250;6.776;2023-06-22T10:34:57;26.80;53.80
10654;DHT22;5375;51.250;6.776;2023-06-22T10:37:23;26.80;53.80
10654;DHT22;5375;51.250;6.776;2023-06-22T10:39:48;26.80;53.80
10654;DHT22;5375;51.250;6.776;2023-06-22T10:42:14;26.80;53.70
10654;DHT22;5375;51.250;6.776;2023-06-22T10:44:39;26.80;53.70
10654;DHT22;5375;51.250;6.776;2023-06-22T10:47:07;26.80;53.70
10654;DHT22;5375;51.250;6.776;2023-06-22T10:49:32;26.80;53.70
10654;DHT22;5375;51.250;6.776;2023-06-22T10:51:58;26.80;53.60
10654;DHT22;5375;51.250;6.776;2023-06-22T10:54:23;26.80;53.60
10654;DHT22;5375;51.250;6.776;2023-06-22T10:56:49;26.80;53.60
10654;DHT22;5375;51.250;6.776;2023-06-22T10:59:15;26.80;53.60
10654;DHT22;5375;51.250;6.776;2023-06-22T11:01:41;26.70;53.50
10654;DHT22;5375;51.250;6.776;2023-06-22T11:04:07;26.70;53.50
10654;DHT22;5375;51.250;6.776;2023-06-22T11:06:32;26.70;53.50
10654;DHT22;5375;51.250;6.776;2023-06-22T11:08:58;26.70;53.50
10654;DHT22;5375;51.250;6.776;2023-06-22T11:11:25;26.70;53.40
10654;DHT22;5375;51.250;6.776;2023-06-22T11:13:50;26.70;53.40
10654;DHT22;5375;51.250;6.776;2023-06-22T11:16:16;26.70;53.40
10654;DHT22;5375;51.250;6.776;2023-06-22T11:18:41;26.70;53.40
10654;DHT22;5375;51.250;6.776;2023-06-22T11:21:07;26.70;53.40
10654;DHT22;5375;51.250;6.776;2023-06-22T11:23:33;26.70;53.40
10654;DHT22;5375;51.250;6.776;2023-06-22T11:25:58;26.70;53.50
10654;DHT22;5375;51.250;6.776;2023-06-22T11:28:25;26.70;53.50
10654;DHT22;5375;51.250;6.776;2023-06-22T11:30:51;26.70;53.50
10654;DHT22;5375;51.250;6.776;2023-06-22T11:33:16;26.80;53.60
10654;DHT22;5375;51.250;6.776;2023-06-22T11:35:42;26.80;53.50
10654;DHT22;5375;51.250;6.776;2023-06-22T11:38:08;26.80;53.50
10654;DHT22;5375;51.250;6.776;2023-06-22T11:40:36;26.80;53.50
10654;DHT22;5375;51.250;6.776;2023-06-22T11:43:02;26.80;53.50
10654;DHT22;5375;51.250;6.776;2023-06-22T11:45:28;26.80;53.40
10654;DHT22;5375;51.250;6.776;2023-06-22T11:47:53;26.80;53.40
10654;DHT22;5375;51.250;6.776;2023-06-22T11:50:19;26.80;53.40
10654;DHT22;5375;51.250;6.776;2023-06-22T11:52:44;26.80;53.40
10654;DHT22;5375;51.250;6.776;2023-06-22T11:55:10;26.80;53.40
10654;DHT22;5375;51.250;6.776;2023-06-22T11:57:37;26.80;53.50
10654;DHT22;5375;51.250;6.776;2023-06-22T12:00:03;26.80;53.40
10654;DHT22;5375;51.250;6.776;2023-06-22T12:02:41;26.80;53.30
10654;DHT22;5375;51.250;6.776;2023-06-22T12:05:07;26.70;53.30
10654;DHT22;5375;51.250;6.776;2023-06-22T12:07:33;26.80;53.40
10654;DHT22;5375;51.250;6.776;2023-06-22T12:09:59;26.80;53.30
10654;DHT22;5375;51.250;6.776;2023-06-22T12:12:24;26.70;53.30
10654;DHT22;5375;51.250;6.776;2023-06-22T12:14:50;26.70;53.20
10654;DHT22;5375;51.250;6.776;2023-06-22T12:17:16;26.70;52.70
10654;DHT22;5375;51.250;6.776;2023-06-22T12:19:41;26.70;53.20
10654;DHT22;5375;51.250;6.776;2023-06-22T12:22:07;26.70;53.20
10654;DHT22;5375;51.250;6.776;2023-06-22T12:24:32;26.70;53.20
10654;DHT22;5375;51.250;6.776;2023-06-22T12:26:58;26.70;53.20
10654;DHT22;5375;51.250;6.776;2023-06-22T12:29:23;26.70;53.20
10654;DHT22;5375;51.250;6.776;2023-06-22T12:31:49;26.70;53.20
10654;DHT22;5375;51.250;6.776;2023-06-22T12:34:15;26.70;53.20
10654;DHT22;5375;51.250;6.776;2023-06-22T12:36:40;26.70;53.20
10654;DHT22;5375;51.250;6.776;2023-06-22T12:39:06;26.70;53.20
10654;DHT22;5375;51.250;6.776;2023-06-22T12:41:31;26.70;53.20
10654;DHT22;5375;51.250;6.776;2023-06-22T12:43:57;26.60;53.10
10654;DHT22;5375;51.250;6.776;2023-06-22T12:46:23;26.70;53.20
10654;DHT22;5375;51.250;6.776;2023-06-22T12:48:48;26.70;53.20
10654;DHT22;5375;51.250;6.776;2023-06-22T12:51:21;26.60;53.10
10654;DHT22;5375;51.250;6.776;2023-06-22T12:53:47;26.70;53.20
10654;DHT22;5375;51.250;6.776;2023-06-22T12:56:12;26.70;53.20
10654;DHT22;5375;51.250;6.776;2023-06-22T12:58:38;26.70;53.20
10654;DHT22;5375;51.250;6.776;2023-06-22T13:01:04;26.70;53.20
10654;DHT22;5375;51.250;6.776;2023-06-22T13:03:29;26.70;53.20
10654;DHT22;5375;51.250;6.776;2023-06-22T13:05:55;26.70;53.20
10654;DHT22;5375;51.250;6.776;2023-06-22T13:08:21;26.70;53.20
10654;DHT22;5375;51.250;6.776;2023-06-22T13:10:46;26.60;53.20
10654;DHT22;5375;51.250;6.776;2023-06-22T13:13:12;26.60;53.20
10654;DHT22;5375;51.250;6.776;2023-06-22T13:15:37;26.70;53.20
10654;DHT22;5375;51.250;6.776;2023-06-22T13:18:03;26.60;53.20
10654;DHT22;5375;51.250;6.776;2023-06-22T13:20:29;26.60;53.10
10654;DHT22;5375;51.250;6.776;2023-06-22T13:22:54;26.60;53.10
10654;DHT22;5375;51.250;6.776;2023-06-22T13:25:21;26.60;53.10
10654;DHT22;5375;51.250;6.776;2023-06-22T13:27:49;26.60;53.20
10654;DHT22;5375;51.250;6.776;2023-06-22T13:30:15;26.60;53.10
10654;DHT22;5375;51.250;6.776;2023-06-22T13:32:41;26.60;53.10
10654;DHT22;5375;51.250;6.776;2023-06-22T13:35:10;25.60;52.50
10654;DHT22;5375;51.250;6.776;2023-06-22T13:37:36;26.60;53.20
10654;DHT22;5375;51.250;6.776;2023-06-22T13:40:02;26.60;53.20
10654;DHT22;5375;51.250;6.776;2023-06-22T13:42:30;26.60;53.20
10654;DHT22;5375;51.250;6.776;2023-06-22T13:44:56;26.60;53.20
10654;DHT22;5375;51.250;6.776;2023-06-22T13:47:21;26.60;53.20
10654;DHT22;5375;51.250;6.776;2023-06-22T13:49:47;26.60;53.20
10654;DHT22;5375;51.250;6.776;2023-06-22T13:52:13;26.60;53.20
10654;DHT22;5375;51.250;6.776;2023-06-22T13:54:38;26.60;53.20
10654;DHT22;5375;51.250;6.776;2023-06-22T13:57:04;26.60;53.20
10654;DHT22;5375;51.250;6.776;2023-06-22T13:59:30;26.60;53.20
10654;DHT22;5375;51.250;6.776;2023-06-22T14:01:56;26.60;53.20
10654;DHT22;5375;51.250;6.776;2023-06-22T14:04:24;26.60;53.20
10654;DHT22;5375;51.250;6.776;2023-06-22T14:06:50;26.60;53.20
10654;DHT22;5375;51.250;6.776;2023-06-22T14:09:15;26.60;53.20
10654;DHT22;5375;51.250;6.776;2023-06-22T14:11:41;26.60;53.20
10654;DHT22;5375;51.250;6.776;2023-06-22T14:14:06;26.60;53.20
10654;DHT22;5375;51.250;6.776;2023-06-22T14:16:32;26.60;53.20
10654;DHT22;5375;51.250;6.776;2023-06-22T14:18:58;26.60;53.20
10654;DHT22;5375;51.250;6.776;2023-06-22T14:21:23;26.60;53.20
10654;DHT22;5375;51.250;6.776;2023-06-22T14:23:49;26.60;53.20
10654;DHT22;5375;51.250;6.776;2023-06-22T14:26:15;26.60;53.20
10654;DHT22;5375;51.250;6.776;2023-06-22T14:28:44;26.60;53.20
10654;DHT22;5375;51.250;6.776;2023-06-22T14:31:14;26.60;53.20
10654;DHT22;5375;51.250;6.776;2023-06-22T14:33:39;26.60;53.20
10654;DHT22;5375;51.250;6.776;2023-06-22T14:36:05;26.60;53.20
10654;DHT22;5375;51.250;6.776;2023-06-22T14:38:31;26.60;53.20
10654;DHT22;5375;51.250;6.776;2023-06-22T14:40:56;26.60;53.20
10654;DHT22;5375;51.250;6.776;2023-06-22T14:43:22;26.60;53.20
10654;DHT22;5375;51.250;6.776;2023-06-22T14:45:47;26.60;53.20
10654;DHT22;5375;51.250;6.776;2023-06-22T14:48:13;26.60;53.20
10654;DHT22;5375;51.250;6.776;2023-06-22T14:50:38;26.60;53.20
10654;DHT22;5375;51.250;6.776;2023-06-22T14:53:04;26.60;53.50
10654;DHT22;5375;51.250;6.776;2023-06-22T14:55:30;26.60;53.70
10654;DHT22;5375;51.250;6.776;2023-06-22T14:57:55;26.60;53.80
10654;DHT22;5375;51.250;6.776;2023-06-22T15:00:21;26.60;53.80
10654;DHT22;5375;51.250;6.776;2023-06-22T15:02:46;26.60;53.90
10654;DHT22;5375;51.250;6.776;2023-06-22T15:05:12;26.60;53.90
10654;DHT22;5375;51.250;6.776;2023-06-22T15:07:38;26.70;54.00
10654;DHT22;5375;51.250;6.776;2023-06-22T15:10:03;26.70;54.00
10654;DHT22;5375;51.250;6.776;2023-06-22T15:12:29;26.70;54.00
10654;DHT22;5375;51.250;6.776;2023-06-22T15:14:55;26.70;54.00
10654;DHT22;5375;51.250;6.776;2023-06-22T15:17:20;26.70;54.00
10654;DHT22;5375;51.250;6.776;2023-06-22T15:19:46;26.70;54.00
10654;DHT22;5375;51.250;6.776;2023-06-22T15:22:11;26.70;54.00
10654;DHT22;5375;51.250;6.776;2023-06-22T15:24:38;26.70;54.00
10654;DHT22;5375;51.250;6.776;2023-06-22T15:27:04;26.70;54.00
10654;DHT22;5375;51.250;6.776;2023-06-22T15:29:29;26.70;54.00
10654;DHT22;5375;51.250;6.776;2023-06-22T15:31:59;26.70;54.10
10654;DHT22;5375;51.250;6.776;2023-06-22T15:34:25;26.80;54.20
10654;DHT22;5375;51.250;6.776;2023-06-22T15:36:50;26.80;54.20
10654;DHT22;5375;51.250;6.776;2023-06-22T15:39:16;26.70;54.10
10654;DHT22;5375;51.250;6.776;2023-06-22T15:41:43;26.80;54.30
10654;DHT22;5375;51.250;6.776;2023-06-22T15:44:08;26.80;54.20
10654;DHT22;5375;51.250;6.776;2023-06-22T15:46:34;26.80;54.70
10654;DHT22;5375;51.250;6.776;2023-06-22T15:49:00;26.80;54.60